createdAt,value
2019-05-12T00:00:39.258Z,73.58
2019-05-12T00:01:38.965Z,74.25
2019-05-12T00:02:39.662Z,74.35
2019-05-12T00:03:37.894Z,75.40
2019-05-12T00:04:38.497Z,75.59
2019-05-12T00:05:38.271Z,74.35
2019-05-12T00:06:38.711Z,74.16
2019-05-12T00:07:38.340Z,73.96
2019-05-12T00:08:38.212Z,74.79
2019-05-12T00:09:38.830Z,74.63
2019-05-12T00:10:38.791Z,74.12
2019-05-12T00:11:37.993Z,74.69
2019-05-12T00:12:38.558Z,73.96
2019-05-12T00:13:38.548Z,74.06
2019-05-12T00:14:38.143Z,74.06
2019-05-12T00:15:38.513Z,73.93
2019-05-12T00:16:38.445Z,75.30
2019-05-12T00:17:38.847Z,76.06
2019-05-12T00:18:37.876Z,74.92
2019-05-12T00:19:37.813Z,75.78
2019-05-12T00:20:38.687Z,75.07
2019-05-12T00:21:39.724Z,74.25
2019-05-12T00:22:38.172Z,74.82
2019-05-12T00:23:38.213Z,74.88
2019-05-12T00:24:38.304Z,74.73
2019-05-12T00:25:38.723Z,75.49
2019-05-12T00:26:38.315Z,76.12
2019-05-12T00:27:38.846Z,74.63
2019-05-12T00:28:37.689Z,74.69
2019-05-12T00:29:37.869Z,74.50
2019-05-12T00:30:38.804Z,74.88
2019-05-12T00:31:38.262Z,75.26
2019-05-12T00:32:38.584Z,75.36
2019-05-12T00:33:38.545Z,76.50
2019-05-12T00:34:38.554Z,76.40
2019-05-12T00:35:38.092Z,76.31
2019-05-12T00:36:37.959Z,75.64
2019-05-12T00:37:38.197Z,75.93
2019-05-12T00:38:38.164Z,75.36
2019-05-12T00:39:38.235Z,75.74
2019-05-12T00:40:39.312Z,76.50
2019-05-12T00:41:39.004Z,75.84
2019-05-12T00:42:38.105Z,76.88
2019-05-12T00:43:38.252Z,76.88
2019-05-12T00:44:39.046Z,76.98
2019-05-12T00:45:38.564Z,76.79
2019-05-12T00:46:38.557Z,76.59
2019-05-12T00:47:38.906Z,76.98
2019-05-12T00:48:37.615Z,76.88
2019-05-12T00:49:37.926Z,76.88
2019-05-12T00:50:38.166Z,76.98
2019-05-12T00:51:38.428Z,76.59
2019-05-12T00:52:38.608Z,76.69
2019-05-12T00:53:40.882Z,77.26
2019-05-12T00:54:37.582Z,77.55
2019-05-12T00:55:38.136Z,76.88
2019-05-12T00:56:38.960Z,76.98
2019-05-12T00:57:38.265Z,77.45
2019-05-12T00:58:38.230Z,77.74
2019-05-12T00:59:38.270Z,78.03
2019-05-12T01:00:39.959Z,78.31
2019-05-12T01:01:38.040Z,77.55
2019-05-12T01:02:37.952Z,77.83
2019-05-12T01:03:38.169Z,79.07
2019-05-12T01:04:38.122Z,79.17
2019-05-12T01:05:38.287Z,78.50
2019-05-12T01:06:38.658Z,78.59
2019-05-12T01:07:38.189Z,78.88
2019-05-12T01:08:38.305Z,79.36
2019-05-12T01:09:38.549Z,78.22
2019-05-12T01:10:38.902Z,78.41
2019-05-12T01:11:37.891Z,78.31
2019-05-12T01:12:38.304Z,78.41
2019-05-12T01:13:38.248Z,78.88
2019-05-12T01:14:38.347Z,78.41
2019-05-12T01:15:37.761Z,78.31
2019-05-12T01:16:38.521Z,78.88
2019-05-12T01:17:40.072Z,79.17
2019-05-12T01:18:38.431Z,78.41
2019-05-12T01:19:37.473Z,79.27
2019-05-12T01:20:38.767Z,78.88
2019-05-12T01:21:37.628Z,79.36
2019-05-12T01:22:38.360Z,79.74
2019-05-12T01:23:50.202Z,79.55
2019-05-12T01:24:37.908Z,79.83
2019-05-12T01:25:36.358Z,79.83
2019-05-12T01:26:38.561Z,79.83
2019-05-12T01:27:38.140Z,79.93
2019-05-12T01:28:38.295Z,80.12
2019-05-12T01:29:38.423Z,80.22
2019-05-12T01:30:38.691Z,80.22
2019-05-12T01:31:37.799Z,80.41
2019-05-12T01:32:38.173Z,79.83
2019-05-12T01:33:38.083Z,80.31
2019-05-12T01:34:38.235Z,79.83
2019-05-12T01:35:38.438Z,80.12
2019-05-12T01:36:38.132Z,80.31
2019-05-12T01:37:38.317Z,80.60
2019-05-12T01:38:37.941Z,80.69
2019-05-12T01:39:38.252Z,80.60
2019-05-12T01:40:38.521Z,80.41
2019-05-12T01:41:36.056Z,80.69
2019-05-12T01:42:38.270Z,80.69
2019-05-12T01:43:38.079Z,80.98
2019-05-12T01:44:38.214Z,81.65
2019-05-12T01:45:37.992Z,81.36
2019-05-12T01:46:38.158Z,81.46
2019-05-12T01:47:38.134Z,81.17
2019-05-12T01:48:37.770Z,81.65
2019-05-12T01:49:38.241Z,81.84
2019-05-12T01:50:38.304Z,81.26
2019-05-12T01:51:38.257Z,81.74
2019-05-12T01:52:35.845Z,81.55
2019-05-12T01:53:37.865Z,82.41
2019-05-12T01:54:37.956Z,82.31
2019-05-12T01:55:35.789Z,81.93
2019-05-12T01:56:38.116Z,82.69
2019-05-12T01:57:38.270Z,82.41
2019-05-12T01:58:38.029Z,81.55
2019-05-12T01:59:38.017Z,81.93
2019-05-12T02:00:38.366Z,82.21
2019-05-12T02:01:35.677Z,82.21
2019-05-12T02:02:35.657Z,82.31
2019-05-12T02:03:37.630Z,82.41
2019-05-12T02:04:37.565Z,82.69
2019-05-12T02:05:37.946Z,82.60
2019-05-12T02:06:38.385Z,82.89
2019-05-12T02:07:35.561Z,83.07
2019-05-12T02:08:35.561Z,82.60
2019-05-12T02:09:35.530Z,82.41
2019-05-12T02:10:35.508Z,82.50
2019-05-12T02:11:37.817Z,82.41
2019-05-12T02:12:38.143Z,82.89
2019-05-12T02:13:37.997Z,83.45
2019-05-12T02:14:35.428Z,83.45
2019-05-12T02:15:35.409Z,83.17
2019-05-12T02:16:35.392Z,83.26
2019-05-12T02:17:35.373Z,83.93
2019-05-12T02:18:35.357Z,84.03
2019-05-12T02:19:35.333Z,84.31
2019-05-12T02:20:35.313Z,83.65
2019-05-12T02:21:35.300Z,83.84
2019-05-12T02:22:35.277Z,83.93
2019-05-12T02:23:35.257Z,84.12
2019-05-12T02:24:35.238Z,84.41
2019-05-12T02:25:37.310Z,83.74
2019-05-12T02:26:35.201Z,84.03
2019-05-12T02:27:35.189Z,83.84
2019-05-12T02:28:35.162Z,84.22
2019-05-12T02:29:35.144Z,84.41
2019-05-12T02:30:35.132Z,83.74
2019-05-12T02:31:35.126Z,84.03
2019-05-12T02:32:44.545Z,84.03
2019-05-12T02:33:35.695Z,84.22
2019-05-12T02:34:35.193Z,83.55
2019-05-12T02:35:35.637Z,83.84
2019-05-12T02:36:35.011Z,83.74
2019-05-12T02:37:35.948Z,83.65
2019-05-12T02:38:34.973Z,83.65
2019-05-12T02:39:35.402Z,84.12
2019-05-12T02:40:35.288Z,84.12
2019-05-12T02:41:34.920Z,84.22
2019-05-12T02:42:35.078Z,84.79
2019-05-12T02:43:34.980Z,85.08
2019-05-12T02:44:34.869Z,85.08
2019-05-12T02:45:35.873Z,84.50
2019-05-12T02:46:35.185Z,84.22
2019-05-12T02:47:34.954Z,83.74
2019-05-12T02:48:35.593Z,84.41
2019-05-12T02:49:35.011Z,84.31
2019-05-12T02:50:35.552Z,84.22
2019-05-12T02:51:35.332Z,84.79
2019-05-12T02:52:34.981Z,84.79
2019-05-12T02:53:35.245Z,84.98
2019-05-12T02:54:50.697Z,85.17
2019-05-12T02:55:35.479Z,85.08
2019-05-12T02:56:35.698Z,85.17
2019-05-12T02:57:34.611Z,84.88
2019-05-12T02:58:34.882Z,84.69
2019-05-12T02:59:34.932Z,85.55
2019-05-12T03:00:35.573Z,84.69
2019-05-12T03:01:34.822Z,84.88
2019-05-12T03:02:34.850Z,85.55
2019-05-12T03:03:35.313Z,85.74
2019-05-12T03:04:35.069Z,85.84
2019-05-12T03:05:35.133Z,85.55
2019-05-12T03:06:36.151Z,85.55
2019-05-12T03:07:34.732Z,86.12
2019-05-12T03:08:35.033Z,85.93
2019-05-12T03:09:35.292Z,85.93
2019-05-12T03:10:35.474Z,86.03
2019-05-12T03:11:35.467Z,85.93
2019-05-12T03:12:34.596Z,85.64
2019-05-12T03:13:34.765Z,85.74
2019-05-12T03:14:40.280Z,85.46
2019-05-12T03:15:36.340Z,85.55
2019-05-12T03:16:35.104Z,86.22
2019-05-12T03:17:35.546Z,86.03
2019-05-12T03:18:34.879Z,86.03
2019-05-12T03:19:34.624Z,85.84
2019-05-12T03:20:35.422Z,86.69
2019-05-12T03:21:35.209Z,86.60
2019-05-12T03:22:35.281Z,86.51
2019-05-12T03:23:35.203Z,86.41
2019-05-12T03:24:34.310Z,86.51
2019-05-12T03:25:35.708Z,86.69
2019-05-12T03:26:34.805Z,86.60
2019-05-12T03:27:35.136Z,87.27
2019-05-12T03:28:35.560Z,87.17
2019-05-12T03:29:34.530Z,87.74
2019-05-12T03:30:38.294Z,87.55
2019-05-12T03:31:39.877Z,87.27
2019-05-12T03:32:37.937Z,87.07
2019-05-12T03:33:41.964Z,86.69
2019-05-12T03:34:38.427Z,87.46
2019-05-12T03:35:41.568Z,87.07
2019-05-12T03:36:41.141Z,87.36
2019-05-12T03:37:35.331Z,87.07
2019-05-12T03:38:35.982Z,87.46
2019-05-12T03:39:34.444Z,87.46
2019-05-12T03:40:37.541Z,87.46
2019-05-12T03:41:34.863Z,87.93
2019-05-12T03:42:35.454Z,87.93
2019-05-12T03:43:35.124Z,88.22
2019-05-12T03:44:35.258Z,88.12
2019-05-12T03:45:35.920Z,87.74
2019-05-12T03:46:35.279Z,87.65
2019-05-12T03:47:35.561Z,87.93
2019-05-12T03:48:34.958Z,88.03
2019-05-12T03:49:34.757Z,88.03
2019-05-12T03:50:35.450Z,88.60
2019-05-12T03:51:34.934Z,87.93
2019-05-12T03:52:34.915Z,88.51
2019-05-12T03:53:35.243Z,88.79
2019-05-12T03:54:34.969Z,88.60
2019-05-12T03:55:38.149Z,88.70
2019-05-12T03:56:34.682Z,88.51
2019-05-12T03:57:34.544Z,89.07
2019-05-12T03:58:34.585Z,88.70
2019-05-12T03:59:34.858Z,88.98
2019-05-12T04:00:35.678Z,88.79
2019-05-12T04:01:36.354Z,88.89
2019-05-12T04:02:34.158Z,89.07
2019-05-12T04:03:34.578Z,88.98
2019-05-12T04:04:34.756Z,89.07
2019-05-12T04:05:34.867Z,88.84
2019-05-12T04:06:34.643Z,88.98
2019-05-12T04:07:34.514Z,89.36
2019-05-12T04:08:34.690Z,89.17
2019-05-12T04:09:34.873Z,89.55
2019-05-12T04:10:35.343Z,88.89
2019-05-12T04:11:35.673Z,88.98
2019-05-12T04:12:34.629Z,89.17
2019-05-12T04:13:34.164Z,88.60
2019-05-12T04:14:34.550Z,88.51
2019-05-12T04:15:34.666Z,88.60
2019-05-12T04:16:36.408Z,88.41
2019-05-12T04:17:34.957Z,88.60
2019-05-12T04:18:34.821Z,88.51
2019-05-12T04:19:34.420Z,88.60
2019-05-12T04:20:35.670Z,88.22
2019-05-12T04:21:35.072Z,88.22
2019-05-12T04:22:35.255Z,87.65
2019-05-12T04:23:34.885Z,87.84
2019-05-12T04:24:35.888Z,87.27
2019-05-12T04:25:47.793Z,87.65
2019-05-12T04:26:36.324Z,87.65
2019-05-12T04:27:34.920Z,87.84
2019-05-12T04:28:35.080Z,87.84
2019-05-12T04:29:34.923Z,87.27
2019-05-12T04:30:35.408Z,87.93
2019-05-12T04:31:34.753Z,87.74
2019-05-12T04:32:35.682Z,87.55
2019-05-12T04:33:34.679Z,87.36
2019-05-12T04:34:34.291Z,86.98
2019-05-12T04:35:34.814Z,86.69
2019-05-12T04:36:35.517Z,87.27
2019-05-12T04:37:35.209Z,87.27
2019-05-12T04:38:35.506Z,87.27
2019-05-12T04:39:34.141Z,86.88
2019-05-12T04:40:35.993Z,86.41
2019-05-12T04:41:35.248Z,86.60
2019-05-12T04:42:34.948Z,87.07
2019-05-12T04:43:35.277Z,86.60
2019-05-12T04:44:34.692Z,86.12
2019-05-12T04:45:34.729Z,86.69
2019-05-12T04:46:34.650Z,86.12
2019-05-12T04:47:34.985Z,86.32
2019-05-12T04:48:35.780Z,85.69
2019-05-12T04:49:34.559Z,85.93
2019-05-12T04:50:35.324Z,86.07
2019-05-12T04:51:34.923Z,85.97
2019-05-12T04:52:35.127Z,85.55
2019-05-12T04:53:35.041Z,85.55
2019-05-12T04:54:35.341Z,85.55
2019-05-12T04:55:35.251Z,85.64
2019-05-12T04:56:35.452Z,85.55
2019-05-12T04:57:34.698Z,85.97
2019-05-12T04:58:35.055Z,85.50
2019-05-12T04:59:34.474Z,85.60
2019-05-12T05:00:34.937Z,85.69
2019-05-12T05:01:34.698Z,84.92
2019-05-12T05:02:36.269Z,85.60
2019-05-12T05:03:34.935Z,85.88
2019-05-12T05:04:34.707Z,85.97
2019-05-12T05:05:35.178Z,84.92
2019-05-12T05:06:34.218Z,84.92
2019-05-12T05:07:32.134Z,85.12
2019-05-12T05:08:34.750Z,84.74
2019-05-12T05:09:34.822Z,84.83
2019-05-12T05:10:34.165Z,84.16
2019-05-12T05:11:34.593Z,84.45
2019-05-12T05:12:34.512Z,84.92
2019-05-12T05:13:36.653Z,84.36
2019-05-12T05:14:34.066Z,84.92
2019-05-12T05:15:34.809Z,84.83
2019-05-12T05:16:34.372Z,84.55
2019-05-12T05:17:34.529Z,84.26
2019-05-12T05:18:34.288Z,83.59
2019-05-12T05:19:33.728Z,84.36
2019-05-12T05:20:34.244Z,84.74
2019-05-12T05:21:34.251Z,84.45
2019-05-12T05:22:33.336Z,84.36
2019-05-12T05:23:33.513Z,85.31
2019-05-12T05:24:33.857Z,84.83
2019-05-12T05:25:33.951Z,84.55
2019-05-12T05:26:34.926Z,84.83
2019-05-12T05:27:33.887Z,83.59
2019-05-12T05:28:33.851Z,83.69
2019-05-12T05:29:33.566Z,83.83
2019-05-12T05:30:33.999Z,84.07
2019-05-12T05:31:33.712Z,84.16
2019-05-12T05:32:33.841Z,83.78
2019-05-12T05:33:33.869Z,84.49
2019-05-12T05:34:31.636Z,83.83
2019-05-12T05:35:35.156Z,83.92
2019-05-12T05:36:34.350Z,83.64
2019-05-12T05:37:36.942Z,83.78
2019-05-12T05:38:31.556Z,84.36
2019-05-12T05:39:35.743Z,84.01
2019-05-12T05:40:31.523Z,83.64
2019-05-12T05:41:31.508Z,83.64
2019-05-12T05:42:33.400Z,84.11
2019-05-12T05:43:33.311Z,83.92
2019-05-12T05:44:36.318Z,83.83
2019-05-12T05:45:31.425Z,83.35
2019-05-12T05:46:33.649Z,82.87
2019-05-12T05:47:33.480Z,82.11
2019-05-12T05:48:34.460Z,82.30
2019-05-12T05:49:31.354Z,81.82
2019-05-12T05:50:31.335Z,81.44
2019-05-12T05:51:33.532Z,81.54
2019-05-12T05:52:37.028Z,81.63
2019-05-12T05:53:33.430Z,81.82
2019-05-12T05:54:35.215Z,82.34
2019-05-12T05:55:33.460Z,82.06
2019-05-12T05:56:41.418Z,81.20
2019-05-12T05:57:31.216Z,81.48
2019-05-12T05:58:33.781Z,80.62
2019-05-12T05:59:35.864Z,80.72
2019-05-12T06:00:31.152Z,79.67
2019-05-12T06:01:31.171Z,80.24
2019-05-12T06:02:33.548Z,79.28
2019-05-12T06:03:31.100Z,79.28
2019-05-12T06:04:31.086Z,79.48
2019-05-12T06:05:31.155Z,78.56
2019-05-12T06:06:31.048Z,77.95
2019-05-12T06:07:35.770Z,78.28
2019-05-12T06:08:31.011Z,78.43
2019-05-12T06:09:30.998Z,79.23
2019-05-12T06:10:36.057Z,77.51
2019-05-12T06:11:30.962Z,77.13
2019-05-12T06:12:32.927Z,77.13
2019-05-12T06:13:32.391Z,77.23
2019-05-12T06:14:30.908Z,77.89
2019-05-12T06:15:35.814Z,77.80
2019-05-12T06:16:30.871Z,77.42
2019-05-12T06:17:30.856Z,76.18
2019-05-12T06:18:33.284Z,76.56
2019-05-12T06:19:30.823Z,76.71
2019-05-12T06:20:30.798Z,77.19
2019-05-12T06:21:36.299Z,77.61
2019-05-12T06:22:30.765Z,77.32
2019-05-12T06:23:34.883Z,76.62
2019-05-12T06:24:30.728Z,77.86
2019-05-12T06:25:41.118Z,77.38
2019-05-12T06:26:34.858Z,77.57
2019-05-12T06:27:32.857Z,77.51
2019-05-12T06:28:31.189Z,77.03
2019-05-12T06:29:30.643Z,76.90
2019-05-12T06:30:37.511Z,77.86
2019-05-12T06:31:30.610Z,77.86
2019-05-12T06:32:30.589Z,78.72
2019-05-12T06:33:31.505Z,77.86
2019-05-12T06:34:30.558Z,77.09
2019-05-12T06:35:30.978Z,77.38
2019-05-12T06:36:30.519Z,77.32
2019-05-12T06:37:30.505Z,78.23
2019-05-12T06:38:31.102Z,78.47
2019-05-12T06:39:30.467Z,76.94
2019-05-12T06:40:30.850Z,76.56
2019-05-12T06:41:30.437Z,76.56
2019-05-12T06:42:30.417Z,76.71
2019-05-12T06:43:35.000Z,76.65
2019-05-12T06:44:30.381Z,76.81
2019-05-12T06:45:33.981Z,76.52
2019-05-12T06:46:30.343Z,76.04
2019-05-12T06:47:30.331Z,76.52
2019-05-12T06:48:30.435Z,76.42
2019-05-12T06:49:30.295Z,76.71
2019-05-12T06:50:36.960Z,76.62
2019-05-12T06:51:30.261Z,76.62
2019-05-12T06:52:30.243Z,76.62
2019-05-12T06:53:31.141Z,76.71
2019-05-12T06:54:30.207Z,76.27
2019-05-12T06:55:36.653Z,75.98
2019-05-12T06:56:30.171Z,76.37
2019-05-12T06:57:30.159Z,76.46
2019-05-12T06:58:32.145Z,76.56
2019-05-12T06:59:30.126Z,76.37
2019-05-12T07:00:31.901Z,75.70
2019-05-12T07:01:30.088Z,76.27
2019-05-12T07:02:34.749Z,75.60
2019-05-12T07:03:31.505Z,74.59
2019-05-12T07:04:30.037Z,73.92
2019-05-12T07:05:33.783Z,72.78
2019-05-12T07:06:30.009Z,72.58
2019-05-12T07:07:35.466Z,73.48
2019-05-12T07:08:32.114Z,73.86
2019-05-12T07:09:32.515Z,72.85
2019-05-12T07:10:43.564Z,70.56
2019-05-12T07:11:41.483Z,69.41
2019-05-12T07:12:36.519Z,69.41
2019-05-12T07:13:29.885Z,69.50
2019-05-12T07:14:29.869Z,68.35
2019-05-12T07:15:35.747Z,68.58
2019-05-12T07:16:30.456Z,68.49
2019-05-12T07:17:29.820Z,68.39
2019-05-12T07:18:32.866Z,67.76
2019-05-12T07:19:29.937Z,66.13
2019-05-12T07:20:35.648Z,65.55
2019-05-12T07:21:29.756Z,64.79
2019-05-12T07:22:31.245Z,63.96
2019-05-12T07:23:30.303Z,62.46
2019-05-12T07:24:29.709Z,63.16
2019-05-12T07:25:33.565Z,62.46
2019-05-12T07:26:29.678Z,60.06
2019-05-12T07:27:36.634Z,60.19
2019-05-12T07:28:30.467Z,59.87
2019-05-12T07:29:29.632Z,59.80
2019-05-12T07:30:31.909Z,59.23
2019-05-12T07:31:29.597Z,59.13
2019-05-12T07:32:29.579Z,58.65
2019-05-12T07:33:32.788Z,58.65
2019-05-12T07:34:29.553Z,58.69
2019-05-12T07:35:29.533Z,58.01
2019-05-12T07:36:29.521Z,58.14
2019-05-12T07:37:30.065Z,58.17
2019-05-12T07:38:29.488Z,56.95
2019-05-12T07:39:29.474Z,53.90
2019-05-12T07:40:30.561Z,52.89
2019-05-12T07:41:29.446Z,51.84
2019-05-12T07:42:31.543Z,51.57
2019-05-12T07:43:29.424Z,50.83
2019-05-12T07:44:34.402Z,48.83
2019-05-12T07:45:29.395Z,48.54
2019-05-12T07:46:29.383Z,46.73
2019-05-12T07:47:29.470Z,45.39
2019-05-12T07:48:29.362Z,45.89
2019-05-12T07:49:34.381Z,44.46
2019-05-12T07:50:29.334Z,43.50
2019-05-12T07:51:30.451Z,43.12
2019-05-12T07:52:29.372Z,43.72
2019-05-12T07:53:29.308Z,42.46
2019-05-12T07:54:34.602Z,43.06
2019-05-12T07:55:29.297Z,42.77
2019-05-12T07:56:32.863Z,42.02
2019-05-12T07:57:29.272Z,42.12
2019-05-12T07:58:29.258Z,42.41
2019-05-12T07:59:35.678Z,42.91
2019-05-12T08:00:29.249Z,43.10
2019-05-12T08:01:29.240Z,41.97
2019-05-12T08:02:31.810Z,41.77
2019-05-12T08:03:29.228Z,39.82
2019-05-12T08:04:31.777Z,40.11
2019-05-12T08:05:29.211Z,40.40
2019-05-12T08:06:32.566Z,40.11
2019-05-12T08:07:30.011Z,40.50
2019-05-12T08:08:29.204Z,38.95
2019-05-12T08:09:32.559Z,38.66
2019-05-12T08:10:29.184Z,40.61
2019-05-12T08:11:36.708Z,40.52
2019-05-12T08:12:29.179Z,39.57
2019-05-12T08:13:31.302Z,41.02
2019-05-12T08:14:29.568Z,41.24
2019-05-12T08:15:29.163Z,39.29
2019-05-12T08:16:33.663Z,38.53
2019-05-12T08:17:29.159Z,38.53
2019-05-12T08:18:30.534Z,38.35
2019-05-12T08:19:29.148Z,38.06
2019-05-12T08:20:29.147Z,39.43
2019-05-12T08:21:29.142Z,37.71
2019-05-12T08:22:29.567Z,36.93
2019-05-12T08:23:29.138Z,36.44
2019-05-12T08:24:29.158Z,35.78
2019-05-12T08:25:29.132Z,35.40
2019-05-12T08:26:29.129Z,34.04
2019-05-12T08:27:29.128Z,34.33
2019-05-12T08:28:35.705Z,34.33
2019-05-12T08:29:29.124Z,34.72
2019-05-12T08:30:29.121Z,33.83
2019-05-12T08:31:33.083Z,34.80
2019-05-12T08:32:29.129Z,34.04
2019-05-12T08:33:29.117Z,33.98
2019-05-12T08:34:29.115Z,33.90
2019-05-12T08:35:34.590Z,33.02
2019-05-12T08:36:29.113Z,31.66
2019-05-12T08:37:29.110Z,33.12
2019-05-12T08:38:29.104Z,31.44
2019-05-12T08:39:29.108Z,32.18
2019-05-12T08:40:29.104Z,33.15
2019-05-12T08:41:29.102Z,33.17
2019-05-12T08:42:29.102Z,32.39
2019-05-12T08:43:29.100Z,32.02
2019-05-12T08:44:33.689Z,31.71
2019-05-12T08:45:34.100Z,31.62
2019-05-12T08:46:29.096Z,31.71
2019-05-12T08:47:34.388Z,32.49
2019-05-12T08:48:29.128Z,32.79
2019-05-12T08:49:34.047Z,31.73
2019-05-12T08:50:31.556Z,31.73
2019-05-12T08:51:29.089Z,31.82
2019-05-12T08:52:30.464Z,32.32
2019-05-12T08:53:29.091Z,31.16
2019-05-12T08:54:29.096Z,31.62
2019-05-12T08:55:31.549Z,32.00
2019-05-12T08:56:29.086Z,32.10
2019-05-12T08:57:34.835Z,32.79
2019-05-12T08:58:33.944Z,31.73
2019-05-12T08:59:29.082Z,32.70
2019-05-12T09:00:29.078Z,34.17
2019-05-12T09:01:30.729Z,32.92
2019-05-12T09:02:29.080Z,31.66
2019-05-12T09:03:30.401Z,32.34
2019-05-12T09:04:29.102Z,33.01
2019-05-12T09:05:35.766Z,32.32
2019-05-12T09:06:29.075Z,32.42
2019-05-12T09:07:30.394Z,32.89
2019-05-12T09:08:29.072Z,33.57
2019-05-12T09:09:29.074Z,35.53
2019-05-12T09:10:29.067Z,35.33
2019-05-12T09:11:29.070Z,34.08
2019-05-12T09:12:29.068Z,33.20
2019-05-12T09:13:29.063Z,33.17
2019-05-12T09:14:35.544Z,34.02
2019-05-12T09:15:29.064Z,35.07
2019-05-12T09:16:29.071Z,36.33
2019-05-12T09:17:29.064Z,35.54
2019-05-12T09:18:35.089Z,35.33
2019-05-12T09:19:29.057Z,36.78
2019-05-12T09:20:29.055Z,35.93
2019-05-12T09:21:31.573Z,36.33
2019-05-12T09:22:29.054Z,34.39
2019-05-12T09:23:32.827Z,32.92
2019-05-12T09:24:29.055Z,31.76
2019-05-12T09:25:29.050Z,30.69
2019-05-12T09:26:29.666Z,31.34
2019-05-12T09:27:29.048Z,32.70
2019-05-12T09:28:29.045Z,33.95
2019-05-12T09:29:29.047Z,33.47
2019-05-12T09:30:29.041Z,34.07
2019-05-12T09:31:29.624Z,34.19
2019-05-12T09:32:29.048Z,33.39
2019-05-12T09:33:31.881Z,33.29
2019-05-12T09:34:29.388Z,33.12
2019-05-12T09:35:34.789Z,34.20
2019-05-12T09:36:29.037Z,33.02
2019-05-12T09:37:30.930Z,34.11
2019-05-12T09:38:29.031Z,33.92
2019-05-12T09:39:36.416Z,33.15
2019-05-12T09:40:29.030Z,32.67
2019-05-12T09:41:34.327Z,31.62
2019-05-12T09:42:30.176Z,32.68
2019-05-12T09:43:29.028Z,32.79
2019-05-12T09:44:30.522Z,32.42
2019-05-12T09:45:29.027Z,31.07
2019-05-12T09:46:34.244Z,31.53
2019-05-12T09:47:29.152Z,31.34
2019-05-12T09:48:29.014Z,32.13
2019-05-12T09:49:39.044Z,31.35
2019-05-12T09:50:29.009Z,30.00
2019-05-12T09:51:32.912Z,29.51
2019-05-12T09:52:29.018Z,30.57
2019-05-12T09:53:29.006Z,29.79
2019-05-12T09:54:35.589Z,29.60
2019-05-12T09:55:29.001Z,30.95
2019-05-12T09:56:29.000Z,30.77
2019-05-12T09:57:32.432Z,30.29
2019-05-12T09:58:28.997Z,30.29
2019-05-12T09:59:28.991Z,30.19
2019-05-12T10:00:30.430Z,30.77
2019-05-12T10:01:34.086Z,31.08
2019-05-12T10:02:28.986Z,31.76
2019-05-12T10:03:30.951Z,30.88
2019-05-12T10:04:28.985Z,30.88
2019-05-12T10:05:30.571Z,31.19
2019-05-12T10:06:28.977Z,30.80
2019-05-12T10:07:28.977Z,29.93
2019-05-12T10:08:29.370Z,29.04
2019-05-12T10:09:28.973Z,29.82
2019-05-12T10:10:29.246Z,29.91
2019-05-12T10:11:28.971Z,29.91
2019-05-12T10:12:29.889Z,29.41
2019-05-12T10:13:30.302Z,28.93
2019-05-12T10:14:28.965Z,28.93
2019-05-12T10:15:28.963Z,29.12
2019-05-12T10:16:28.965Z,29.61
2019-05-12T10:17:30.354Z,29.11
2019-05-12T10:18:28.960Z,29.38
2019-05-12T10:19:28.957Z,28.14
2019-05-12T10:20:29.320Z,28.14
2019-05-12T10:21:28.963Z,28.64
2019-05-12T10:22:30.002Z,28.75
2019-05-12T10:23:28.956Z,27.58
2019-05-12T10:24:32.457Z,28.08
2019-05-12T10:25:30.738Z,29.26
2019-05-12T10:26:28.952Z,28.50
2019-05-12T10:27:31.938Z,29.00
2019-05-12T10:28:28.949Z,27.55
2019-05-12T10:29:30.738Z,26.10
2019-05-12T10:30:28.954Z,27.97
2019-05-12T10:31:29.653Z,27.20
2019-05-12T10:32:28.952Z,26.63
2019-05-12T10:33:28.957Z,25.26
2019-05-12T10:34:29.514Z,24.28
2019-05-12T10:35:28.952Z,25.54
2019-05-12T10:36:28.952Z,25.93
2019-05-12T10:37:29.507Z,25.46
2019-05-12T10:38:28.956Z,24.00
2019-05-12T10:39:28.952Z,24.98
2019-05-12T10:40:28.952Z,23.90
2019-05-12T10:41:28.958Z,23.90
2019-05-12T10:42:28.956Z,23.71
2019-05-12T10:43:28.964Z,24.88
2019-05-12T10:44:36.197Z,24.00
2019-05-12T10:45:29.979Z,24.19
2019-05-12T10:46:28.962Z,23.89
2019-05-12T10:47:28.960Z,24.88
2019-05-12T10:48:28.963Z,25.00
2019-05-12T10:49:28.968Z,25.11
2019-05-12T10:50:28.966Z,23.26
2019-05-12T10:51:28.965Z,25.23
2019-05-12T10:52:29.515Z,25.05
2019-05-12T10:53:28.970Z,23.10
2019-05-12T10:54:29.387Z,22.61
2019-05-12T10:55:28.976Z,23.39
2019-05-12T10:56:28.977Z,22.51
2019-05-12T10:57:28.975Z,22.72
2019-05-12T10:58:28.974Z,21.94
2019-05-12T10:59:33.149Z,22.61
2019-05-12T11:00:28.976Z,21.33
2019-05-12T11:01:28.981Z,21.62
2019-05-12T11:02:30.618Z,21.51
2019-05-12T11:03:28.984Z,21.51
2019-05-12T11:04:35.758Z,22.99
2019-05-12T11:05:28.990Z,23.79
2019-05-12T11:06:28.988Z,22.72
2019-05-12T11:07:30.004Z,20.07
2019-05-12T11:08:28.990Z,22.41
2019-05-12T11:09:31.634Z,21.35
2019-05-12T11:10:28.996Z,21.45
2019-05-12T11:11:32.845Z,20.75
2019-05-12T11:12:29.351Z,21.23
2019-05-12T11:13:29.000Z,21.41
2019-05-12T11:14:30.507Z,22.97
2019-05-12T11:15:29.007Z,23.07
2019-05-12T11:16:30.908Z,22.27
2019-05-12T11:17:29.006Z,22.25
2019-05-12T11:18:30.595Z,23.13
2019-05-12T11:19:29.008Z,23.43
2019-05-12T11:20:29.013Z,23.23
2019-05-12T11:21:29.014Z,23.34
2019-05-12T11:22:29.012Z,20.69
2019-05-12T11:23:29.028Z,20.78
2019-05-12T11:24:29.025Z,22.27
2019-05-12T11:25:29.017Z,22.07
2019-05-12T11:26:29.029Z,20.70
2019-05-12T11:27:29.028Z,21.29
2019-05-12T11:28:29.025Z,21.39
2019-05-12T11:29:42.506Z,19.73
2019-05-12T11:30:29.114Z,20.72
2019-05-12T11:31:29.029Z,20.63
2019-05-12T11:32:36.406Z,20.04
2019-05-12T11:33:29.038Z,20.04
2019-05-12T11:34:29.039Z,20.53
2019-05-12T11:35:29.041Z,21.42
2019-05-12T11:36:29.146Z,19.96
2019-05-12T11:37:29.189Z,20.06
2019-05-12T11:38:29.041Z,21.42
2019-05-12T11:39:30.692Z,21.34
2019-05-12T11:40:29.044Z,21.15
2019-05-12T11:41:29.044Z,21.64
2019-05-12T11:42:29.047Z,21.36
2019-05-12T11:43:29.876Z,20.86
2019-05-12T11:44:29.047Z,20.36
2019-05-12T11:45:29.058Z,20.95
2019-05-12T11:46:29.057Z,20.06
2019-05-12T11:47:29.059Z,20.06
2019-05-12T11:48:29.058Z,19.95
2019-05-12T11:49:29.065Z,20.53
2019-05-12T11:50:29.061Z,20.83
2019-05-12T11:51:30.435Z,21.33
2019-05-12T11:52:29.074Z,21.24
2019-05-12T11:53:30.628Z,20.17
2019-05-12T11:54:29.080Z,18.91
2019-05-12T11:55:31.586Z,20.01
2019-05-12T11:56:29.086Z,17.94
2019-05-12T11:57:30.396Z,18.82
2019-05-12T11:58:29.079Z,17.73
2019-05-12T11:59:29.086Z,19.39
2019-05-12T12:00:29.086Z,19.88
2019-05-12T12:01:29.087Z,19.41
2019-05-12T12:02:30.720Z,19.81
2019-05-12T12:03:29.088Z,18.64
2019-05-12T12:04:29.417Z,17.77
2019-05-12T12:05:29.100Z,18.65
2019-05-12T12:06:29.115Z,18.27
2019-05-12T12:07:29.097Z,19.15
2019-05-12T12:08:33.749Z,17.77
2019-05-12T12:09:29.110Z,16.49
2019-05-12T12:10:34.141Z,17.94
2019-05-12T12:11:29.114Z,19.91
2019-05-12T12:12:29.112Z,19.42
2019-05-12T12:13:30.159Z,18.63
2019-05-12T12:14:31.689Z,20.09
2019-05-12T12:15:30.430Z,19.20
2019-05-12T12:16:29.121Z,18.80
2019-05-12T12:17:35.083Z,19.28
2019-05-12T12:18:29.125Z,19.10
2019-05-12T12:19:37.727Z,18.90
2019-05-12T12:20:29.164Z,19.59
2019-05-12T12:21:31.807Z,18.92
2019-05-12T12:22:29.907Z,19.60
2019-05-12T12:23:29.134Z,19.31
2019-05-12T12:24:31.361Z,19.91
2019-05-12T12:25:29.143Z,19.04
2019-05-12T12:26:30.948Z,18.84
2019-05-12T12:27:29.150Z,17.75
2019-05-12T12:28:29.158Z,18.64
2019-05-12T12:29:29.152Z,18.84
2019-05-12T12:30:29.155Z,17.96
2019-05-12T12:31:29.872Z,18.74
2019-05-12T12:32:29.157Z,17.75
2019-05-12T12:33:30.918Z,16.97
2019-05-12T12:34:30.392Z,17.65
2019-05-12T12:35:29.168Z,17.85
2019-05-12T12:36:29.165Z,17.74
2019-05-12T12:37:29.172Z,18.82
2019-05-12T12:38:29.171Z,19.60
2019-05-12T12:39:29.176Z,19.02
2019-05-12T12:40:29.178Z,19.21
2019-05-12T12:41:29.498Z,18.92
2019-05-12T12:42:30.308Z,19.70
2019-05-12T12:43:29.184Z,20.00
2019-05-12T12:44:29.184Z,19.41
2019-05-12T12:45:30.298Z,20.49
2019-05-12T12:46:29.188Z,20.49
2019-05-12T12:47:29.190Z,20.09
2019-05-12T12:48:29.941Z,20.39
2019-05-12T12:49:29.594Z,19.10
2019-05-12T12:50:30.688Z,19.10
2019-05-12T12:51:29.202Z,19.87
2019-05-12T12:52:29.198Z,18.79